Time;durP1;ratioP1;P1;durP2;ratioP2;P2;SDS_P1;SDS_P2;PMS_P1;PMS_P2;Temp;Humidity;BMP_temperature;BMP_pressure;BME280_temperature;BME280_humidity;BME280_pressure;Samples;Min_cycle;Max_cycle;Signal;HPM_P1;HPM_P2
2023/05/03 00:00:39;;;;;;;3.40;1.00;;;;;;;20.12;62.86;101425.13;5034969;28;20058;-56
2023/05/03 00:03:07;;;;;;;2.53;0.75;;;;;;;20.13;62.94;101415.25;5034703;28;20045;-56
2023/05/03 00:05:34;;;;;;;5.30;0.98;;;;;;;20.13;62.97;101415.25;5033475;28;20044;-56
2023/05/03 00:08:02;;;;;;;2.22;0.88;;;;;;;20.12;62.87;101422.44;5034529;28;20048;-56
2023/05/03 00:10:30;;;;;;;3.20;0.90;;;;;;;20.12;62.72;101411.69;5034830;28;20049;-56
2023/05/03 00:12:57;;;;;;;2.63;1.10;;;;;;;20.13;62.77;101408.03;5034337;28;20057;-56
2023/05/03 00:15:25;;;;;;;3.30;0.80;;;;;;;20.13;62.82;101413.41;5034594;28;20041;-56
2023/05/03 00:17:52;;;;;;;2.28;0.80;;;;;;;20.12;62.83;101403.63;5034817;28;20041;-56
2023/05/03 00:20:19;;;;;;;3.10;0.80;;;;;;;20.12;62.73;101409.00;5034831;28;20045;-56
2023/05/03 00:22:47;;;;;;;2.58;0.90;;;;;;;20.12;62.95;101408.16;5034444;28;20514;-56
2023/05/03 00:25:14;;;;;;;2.95;1.05;;;;;;;20.11;62.78;101407.31;5034449;28;20041;-56
2023/05/03 00:27:42;;;;;;;2.53;0.90;;;;;;;20.12;62.98;101402.78;5034596;28;20045;-56
2023/05/03 00:30:09;;;;;;;1.77;0.70;;;;;;;20.12;62.70;101403.63;5034319;28;20045;-56
2023/05/03 00:32:37;;;;;;;2.30;0.80;;;;;;;20.11;62.81;101401.94;5033230;28;20419;-56
2023/05/03 00:35:05;;;;;;;2.08;0.73;;;;;;;20.12;62.72;101408.16;5033015;28;20053;-56
2023/05/03 00:37:32;;;;;;;3.13;0.90;;;;;;;20.12;62.80;101410.84;5032829;28;20071;-56
2023/05/03 00:40:00;;;;;;;2.75;0.90;;;;;;;20.12;62.53;101400.09;5034231;28;20387;-56
2023/05/03 00:42:27;;;;;;;3.85;1.10;;;;;;;20.11;62.73;101404.63;5034193;28;20372;-56
2023/05/03 00:44:55;;;;;;;2.97;0.90;;;;;;;20.12;62.67;101406.31;5034221;28;20064;-56
2023/05/03 00:47:23;;;;;;;3.88;1.10;;;;;;;20.12;62.55;101403.63;5033217;28;20521;-56
2023/05/03 00:49:50;;;;;;;3.88;0.80;;;;;;;20.12;62.51;101403.63;5033078;28;20045;-56
2023/05/03 00:52:18;;;;;;;2.50;0.98;;;;;;;20.12;62.64;101413.53;5033843;28;20053;-56
2023/05/03 00:54:45;;;;;;;2.30;0.90;;;;;;;20.10;62.44;101411.00;5033626;28;20409;-56
2023/05/03 00:57:13;;;;;;;1.60;0.73;;;;;;;20.11;62.55;101404.63;5049267;28;20053;-56
2023/05/03 00:59:41;;;;;;;1.80;0.60;;;;;;;20.11;62.44;101404.63;5032922;28;20064;-56
2023/05/03 01:02:08;;;;;;;3.85;0.70;;;;;;;20.12;62.47;101413.53;5032581;28;20057;-55
2023/05/03 01:04:36;;;;;;;1.60;0.73;;;;;;;20.11;62.55;101404.63;5033720;28;20052;-56
2023/05/03 01:07:25;;;;;;;1.90;0.77;;;;;;;20.11;62.54;101403.78;5033788;28;20498;-56
2023/05/03 01:09:52;;;;;;;1.20;0.55;;;;;;;20.11;62.45;101403.78;5033817;28;20051;-56
2023/05/03 01:12:39;;;;;;;1.70;0.70;;;;;;;20.11;62.38;101406.47;5032530;28;20060;-56
2023/05/03 01:15:35;;;;;;;1.15;0.50;;;;;;;20.11;62.58;101404.63;5033615;28;20048;-56
2023/05/03 01:18:07;;;;;;;2.33;1.00;;;;;;;20.10;62.57;101400.22;5048516;28;20049;-56
2023/05/03 01:20:37;;;;;;;1.40;0.57;;;;;;;20.10;62.35;101405.59;5033848;28;20514;-56
2023/05/03 01:23:13;;;;;;;1.63;0.70;;;;;;;20.11;62.57;101407.31;5032303;28;20053;-56
2023/05/03 01:25:41;;;;;;;1.50;0.60;;;;;;;20.10;62.42;101394.84;5032571;28;20041;-56
2023/05/03 01:28:08;;;;;;;4.07;0.68;;;;;;;20.10;62.41;101394.00;5031926;28;20056;-56
2023/05/03 01:30:38;;;;;;;1.55;0.65;;;;;;;20.12;62.45;101405.47;5034153;28;20053;-56
2023/05/03 01:33:08;;;;;;;3.47;0.65;;;;;;;20.10;62.44;101397.53;5033198;28;20053;-56
2023/05/03 01:35:40;;;;;;;1.58;0.82;;;;;;;20.10;62.41;101397.53;5032978;28;20045;-56
2023/05/03 01:38:08;;;;;;;3.25;0.77;;;;;;;20.11;62.45;101406.47;5033930;28;20053;-56
2023/05/03 01:40:52;;;;;;;3.28;0.60;;;;;;;20.12;62.46;101402.78;5033204;28;20049;-56
2023/05/03 01:43:20;;;;;;;1.38;0.68;;;;;;;20.10;62.37;101394.84;5032061;28;20053;-56
2023/05/03 01:45:48;;;;;;;1.58;0.80;;;;;;;20.10;62.53;101397.53;5033022;28;20049;-56
2023/05/03 01:48:17;;;;;;;1.25;0.65;;;;;;;20.11;62.35;101395.72;5035872;28;20383;-56
2023/05/03 01:50:44;;;;;;;2.55;0.65;;;;;;;20.11;62.43;101406.47;5037355;28;20041;-56
2023/05/03 01:53:12;;;;;;;1.15;0.60;;;;;;;20.11;62.54;101398.41;5037302;28;20395;-56
2023/05/03 01:55:39;;;;;;;1.88;0.63;;;;;;;20.10;62.22;101397.53;5037209;28;20042;-56
2023/05/03 01:58:06;;;;;;;1.25;0.60;;;;;;;20.10;62.44;101402.06;5035529;28;20053;-56
2023/05/03 02:00:34;;;;;;;3.28;0.73;;;;;;;20.09;62.46;101401.19;5036184;28;20045;-56
2023/05/03 02:03:01;;;;;;;1.13;0.52;;;;;;;20.10;62.39;101400.22;5035823;28;20053;-56
2023/05/03 02:05:28;;;;;;;2.28;0.88;;;;;;;20.11;62.44;101403.78;5036970;28;20053;-56
2023/05/03 02:07:56;;;;;;;1.63;0.50;;;;;;;20.11;62.51;101409.16;5036013;28;20080;-56
2023/05/03 02:10:24;;;;;;;1.65;0.70;;;;;;;20.09;62.36;101403.88;5037092;28;20045;-56
2023/05/03 02:12:54;;;;;;;1.58;0.60;;;;;;;20.10;62.55;101402.91;5036900;28;20053;-56
2023/05/03 02:15:22;;;;;;;1.17;0.60;;;;;;;20.11;62.32;101414.53;5035784;28;20045;-55
2023/05/03 02:17:49;;;;;;;2.33;0.98;;;;;;;20.10;62.33;101410.13;5036697;28;20041;-56
2023/05/03 02:20:17;;;;;;;4.18;1.13;;;;;;;20.09;62.33;101403.88;5036444;28;20049;-56
2023/05/03 02:22:53;;;;;;;1.73;0.80;;;;;;;20.09;62.39;101413.78;5036652;28;20045;-56
2023/05/03 02:25:20;;;;;;;1.63;0.80;;;;;;;20.10;62.31;101413.66;5035378;28;20052;-56
2023/05/03 02:27:48;;;;;;;1.23;0.43;;;;;;;20.09;62.26;101403.88;5035304;28;20407;-56
2023/05/03 02:30:15;;;;;;;2.17;0.60;;;;;;;20.09;62.43;101398.50;5035821;28;20053;-56
2023/05/03 02:32:43;;;;;;;1.55;0.60;;;;;;;20.10;62.43;101399.38;5035300;28;20407;-56
2023/05/03 02:35:10;;;;;;;1.65;0.52;;;;;;;20.10;62.20;101399.38;5036600;28;20041;-56
2023/05/03 02:37:38;;;;;;;1.20;0.52;;;;;;;20.10;62.32;101400.22;5035477;28;20052;-56
2023/05/03 02:40:10;;;;;;;1.70;0.67;;;;;;;20.09;62.45;101398.50;5035798;28;20053;-56
2023/05/03 02:42:39;;;;;;;2.47;0.70;;;;;;;20.09;62.32;101398.50;5019126;28;20279;-56
2023/05/03 02:45:08;;;;;;;1.27;0.47;;;;;;;20.09;62.47;101398.50;5035477;28;20053;-55
2023/05/03 02:47:35;;;;;;;1.38;0.70;;;;;;;20.09;62.86;101394.97;5035266;28;20045;-56
2023/05/03 02:50:02;;;;;;;1.75;0.45;;;;;;;20.09;62.47;101398.50;5036422;28;20061;-56
2023/05/03 02:52:34;;;;;;;1.88;0.73;;;;;;;20.09;62.48;101398.50;5035368;28;20068;-56
2023/05/03 02:55:01;;;;;;;1.52;0.57;;;;;;;20.09;62.62;101395.81;5034965;28;20054;-56
2023/05/03 02:57:29;;;;;;;2.78;0.90;;;;;;;20.09;62.45;101395.81;5035133;28;20053;-55
2023/05/03 02:59:57;;;;;;;2.30;0.80;;;;;;;20.08;62.33;101395.94;5034509;28;20049;-56
2023/05/03 03:02:25;;;;;;;1.10;0.50;;;;;;;20.09;62.40;101400.34;5018788;28;20084;-56
2023/05/03 03:04:53;;;;;;;1.05;0.50;;;;;;;20.08;62.52;101402.19;5035120;28;20054;-56
2023/05/03 03:07:22;;;;;;;2.10;0.70;;;;;;;20.07;62.35;101400.47;5034482;28;20513;-56
2023/05/03 03:09:54;;;;;;;1.85;0.45;;;;;;;20.08;62.42;101399.47;5036149;28;20491;-56
2023/05/03 03:12:21;;;;;;;1.65;0.50;;;;;;;20.07;62.24;101400.47;5035879;28;20053;-56
2023/05/03 03:14:49;;;;;;;1.63;0.50;;;;;;;20.07;62.45;101400.47;5034766;28;20054;-56
2023/05/03 03:17:16;;;;;;;2.00;0.60;;;;;;;20.07;62.22;101405.84;5034048;28;20053;-56
2023/05/03 03:19:43;;;;;;;2.70;0.57;;;;;;;20.08;62.40;101407.53;5035562;28;20053;-56
2023/05/03 03:22:11;;;;;;;2.47;0.82;;;;;;;20.07;62.31;101408.53;5035969;28;20050;-56
2023/05/03 03:24:38;;;;;;;1.08;0.43;;;;;;;20.08;62.37;101404.00;5035678;28;20045;-56
2023/05/03 03:27:05;;;;;;;1.65;0.70;;;;;;;20.08;62.50;101406.69;5034371;28;20060;-56
2023/05/03 03:29:34;;;;;;;1.60;0.75;;;;;;;20.07;62.42;101413.91;5034554;28;20383;-56
2023/05/03 03:32:02;;;;;;;1.63;0.73;;;;;;;20.07;62.42;101411.22;5034389;28;20430;-56
2023/05/03 03:34:31;;;;;;;1.88;0.60;;;;;;;20.07;62.31;101416.59;5035540;28;20049;-56
2023/05/03 03:36:58;;;;;;;1.05;0.50;;;;;;;20.07;62.32;101408.53;5035310;28;20041;-56
2023/05/03 03:39:27;;;;;;;1.80;0.32;;;;;;;20.06;62.39;101414.91;5035859;28;20064;-56
2023/05/03 03:41:55;;;;;;;1.63;0.50;;;;;;;20.06;62.33;101405.97;5035331;28;20053;-56
2023/05/03 03:44:22;;;;;;;1.48;0.70;;;;;;;20.07;62.40;101415.75;5034712;28;20049;-56
2023/05/03 03:46:50;;;;;;;1.75;0.65;;;;;;;20.07;62.44;101421.13;5033612;28;20045;-56
2023/05/03 03:49:18;;;;;;;1.75;0.80;;;;;;;20.07;62.29;101423.81;5033782;28;20414;-56
2023/05/03 03:51:45;;;;;;;1.70;0.50;;;;;;;20.07;62.36;101429.19;5034642;28;20502;-56
2023/05/03 03:54:13;;;;;;;1.67;0.47;;;;;;;20.07;62.38;101429.19;5034988;28;20057;-56
2023/05/03 03:56:45;;;;;;;1.95;0.75;;;;;;;20.06;62.52;101431.03;5033660;28;20056;-56
2023/05/03 03:59:13;;;;;;;1.50;0.60;;;;;;;20.06;62.26;101425.66;5033910;28;20060;-56
2023/05/03 04:01:43;;;;;;;2.17;0.70;;;;;;;20.07;62.43;101430.03;5034033;28;20498;-56
2023/05/03 04:04:11;;;;;;;1.38;0.63;;;;;;;20.06;62.31;101433.72;5033999;28;20486;-56
2023/05/03 04:06:39;;;;;;;2.95;0.80;;;;;;;20.06;62.40;101441.78;5034123;28;20053;-56
2023/05/03 04:09:12;;;;;;;1.27;0.50;;;;;;;20.06;62.47;101436.41;5033944;28;20062;-56
2023/05/03 04:11:40;;;;;;;2.30;0.90;;;;;;;20.07;62.26;101442.63;5034920;28;20296;-56
2023/05/03 04:14:08;;;;;;;2.88;0.70;;;;;;;20.06;62.47;101447.16;5033368;28;20057;-56
2023/05/03 04:16:35;;;;;;;2.03;0.80;;;;;;;20.06;62.26;101449.84;5033442;28;20049;-56
2023/05/03 04:19:04;;;;;;;2.97;0.80;;;;;;;20.06;62.29;101452.53;5033640;28;20053;-56
2023/05/03 04:21:34;;;;;;;2.58;1.08;;;;;;;20.06;62.31;101455.22;5050436;28;20053;-56
2023/05/03 04:24:04;;;;;;;2.00;0.80;;;;;;;20.06;62.36;101455.22;5033581;28;20056;-57
2023/05/03 04:26:32;;;;;;;2.03;0.85;;;;;;;20.05;62.23;101450.78;5033525;28;20045;-56
2023/05/03 04:29:10;;;;;;;4.13;0.65;;;;;;;20.07;62.19;101462.28;5033303;28;20053;-56
2023/05/03 04:31:39;;;;;;;2.35;0.55;;;;;;;20.06;62.23;101462.44;5033373;28;20521;-56
2023/05/03 04:34:09;;;;;;;0.95;0.50;;;;;;;20.06;61.96;101467.81;5034062;28;20056;-56
2023/05/03 04:36:37;;;;;;;1.45;0.50;;;;;;;20.06;62.49;101473.19;5032895;28;20057;-56
2023/05/03 04:39:05;;;;;;;1.77;0.82;;;;;;;20.05;62.07;101466.91;5049055;28;20052;-56
2023/05/03 04:41:34;;;;;;;1.58;0.77;;;;;;;20.05;62.22;101469.59;5032960;28;20057;-56
2023/05/03 04:44:02;;;;;;;1.23;0.60;;;;;;;20.07;62.26;101474.88;5032688;28;20057;-56
2023/05/03 04:46:30;;;;;;;5.50;0.75;;;;;;;20.07;62.06;101474.88;5033515;28;20481;-56
2023/05/03 04:48:57;;;;;;;2.13;0.50;;;;;;;20.06;61.96;101473.19;5034205;28;20057;-56
2023/05/03 04:51:25;;;;;;;2.92;0.65;;;;;;;20.07;62.19;101477.56;5033207;28;20400;-56
2023/05/03 04:53:52;;;;;;;1.20;0.60;;;;;;;20.07;62.15;101477.56;5034015;28;20045;-56
2023/05/03 04:56:25;;;;;;;1.65;0.70;;;;;;;20.05;62.09;101485.72;5032616;28;20060;-56
2023/05/03 04:58:58;;;;;;;3.25;0.63;;;;;;;20.06;62.17;101481.25;5032766;28;20053;-56
2023/05/03 05:01:26;;;;;;;3.63;0.90;;;;;;;20.06;62.25;101482.09;5033543;28;20053;-56
2023/05/03 05:03:59;;;;;;;1.27;0.60;;;;;;;20.05;62.13;101493.78;5032187;28;20056;-56
2023/05/03 05:06:33;;;;;;;2.53;0.65;;;;;;;20.05;62.18;101496.47;5032429;28;20052;-56
2023/05/03 05:09:03;;;;;;;2.10;0.70;;;;;;;20.05;62.16;101495.63;5032728;28;20050;-56
2023/05/03 05:11:30;;;;;;;2.90;1.05;;;;;;;20.04;62.21;101486.72;5034088;28;20049;-56
2023/05/03 05:13:58;;;;;;;1.00;0.40;;;;;;;20.05;62.06;101496.47;5033364;28;20065;-56
2023/05/03 05:16:25;;;;;;;1.10;0.43;;;;;;;20.04;62.31;101497.47;5033730;28;20049;-56
2023/05/03 05:18:53;;;;;;;1.35;0.55;;;;;;;20.05;62.23;101501.00;5032790;28;20053;-56
2023/05/03 05:21:24;;;;;;;2.00;0.50;;;;;;;20.03;62.28;101502.97;5049244;28;20049;-56
2023/05/03 05:23:52;;;;;;;0.90;0.40;;;;;;;20.03;62.24;101514.59;5032837;28;20356;-56
2023/05/03 05:26:19;;;;;;;1.40;0.43;;;;;;;20.03;62.23;101511.88;5032630;28;20052;-56
2023/05/03 05:28:48;;;;;;;1.30;0.40;;;;;;;20.04;62.02;101512.75;5032004;28;20415;-55
2023/05/03 05:31:16;;;;;;;1.48;0.52;;;;;;;20.04;62.00;101515.44;5033252;28;20050;-56
2023/05/03 05:33:43;;;;;;;3.15;0.82;;;;;;;20.05;62.01;101519.81;5032324;28;20050;-56
2023/05/03 05:36:11;;;;;;;1.80;0.63;;;;;;;20.04;62.08;101524.34;5032277;28;20080;-56
2023/05/03 05:38:40;;;;;;;1.73;0.70;;;;;;;20.03;62.08;101525.31;5032718;28;20060;-56
2023/05/03 05:41:08;;;;;;;1.60;0.60;;;;;;;20.05;62.16;101535.94;5032907;28;20049;-56
2023/05/03 05:43:37;;;;;;;1.88;0.85;;;;;;;20.03;62.11;101533.38;5032344;28;20053;-56
2023/05/03 05:46:05;;;;;;;1.42;0.60;;;;;;;20.03;61.99;101535.22;5032215;28;20391;-56
2023/05/03 05:48:32;;;;;;;1.92;0.60;;;;;;;20.05;62.13;101542.19;5032143;28;20053;-56
2023/05/03 05:51:01;;;;;;;1.83;0.50;;;;;;;20.04;62.14;101540.47;5048382;28;20061;-56
2023/05/03 05:53:28;;;;;;;2.63;0.55;;;;;;;20.03;62.13;101538.78;5032318;28;20515;-56
2023/05/03 05:55:59;;;;;;;0.98;0.40;;;;;;;20.03;62.20;101538.78;5032321;28;20053;-56
2023/05/03 05:58:30;;;;;;;2.17;0.70;;;;;;;20.03;61.98;101538.78;5032247;28;20049;-56
2023/05/03 06:01:00;;;;;;;1.98;0.60;;;;;;;20.03;61.92;101535.22;5031566;28;20063;-56
2023/05/03 06:03:30;;;;;;;1.67;0.60;;;;;;;20.03;61.97;101538.78;5031825;28;20076;-56
2023/05/03 06:06:00;;;;;;;2.58;0.73;;;;;;;20.04;62.12;101545.84;5031869;28;20056;-56
2023/05/03 06:08:27;;;;;;;1.00;0.60;;;;;;;20.03;62.01;101544.16;5032494;28;20049;-56
2023/05/03 06:10:55;;;;;;;1.90;0.70;;;;;;;20.04;62.34;101556.59;5032233;28;20072;-56
2023/05/03 06:13:25;;;;;;;2.80;1.08;;;;;;;20.03;62.06;101556.72;5031930;28;20053;-56
2023/05/03 06:15:53;;;;;;;2.85;1.00;;;;;;;20.02;61.92;101561.25;5031794;28;20053;-56
2023/05/03 06:18:20;;;;;;;1.75;0.68;;;;;;;20.04;62.06;101567.34;5031842;28;20388;-56
2023/05/03 06:20:48;;;;;;;1.38;0.60;;;;;;;20.04;61.97;101564.66;5032135;28;20053;-56
2023/05/03 06:23:17;;;;;;;1.63;0.50;;;;;;;20.03;62.19;101562.09;5033627;28;20068;-56
2023/05/03 06:25:46;;;;;;;2.03;0.63;;;;;;;20.03;61.89;101560.28;5031627;28;20061;-56
2023/05/03 06:28:15;;;;;;;2.13;0.73;;;;;;;20.03;61.86;101562.09;5031960;28;20052;-56
2023/05/03 06:30:50;;;;;;;1.10;0.40;;;;;;;20.03;61.99;101570.16;5032209;28;20502;-56
2023/05/03 06:33:18;;;;;;;2.22;0.65;;;;;;;20.03;61.93;101571.03;5033115;28;20056;-56
2023/05/03 06:35:48;;;;;;;2.50;0.82;;;;;;;20.02;61.90;101574.69;5034882;28;20053;-56
2023/05/03 06:38:17;;;;;;;1.42;0.60;;;;;;;20.03;61.85;101571.03;5035518;28;20468;-55
2023/05/03 06:40:46;;;;;;;2.03;0.73;;;;;;;20.01;62.05;101578.34;5035587;28;20053;-56
2023/05/03 06:43:13;;;;;;;4.50;0.98;;;;;;;20.02;62.01;101580.06;5035684;28;20049;-56
2023/05/03 06:45:51;;;;;;;2.15;0.65;;;;;;;20.05;62.17;101576.25;5054831;28;20120;-55
2023/05/03 06:48:20;;;;;;;2.10;0.80;;;;;;;20.06;62.21;101581.53;5055444;28;20052;-55
2023/05/03 06:50:47;;;;;;;2.20;0.85;;;;;;;20.07;61.85;101585.94;5055013;28;20513;-54
2023/05/03 06:53:15;;;;;;;1.70;0.55;;;;;;;20.08;61.53;101584.09;5055528;28;20056;-56
2023/05/03 06:55:44;;;;;;;3.00;0.65;;;;;;;20.08;62.52;101582.25;5056235;28;20051;-57
2023/05/03 06:58:12;;;;;;;1.42;0.60;;;;;;;20.09;62.98;101586.66;5056042;28;20052;-57
2023/05/03 07:00:39;;;;;;;4.85;0.70;;;;;;;20.08;62.81;101587.66;5056238;28;20057;-56
2023/05/03 07:03:07;;;;;;;2.55;0.80;;;;;;;20.09;62.62;101583.97;5055777;28;20045;-57
2023/05/03 07:05:35;;;;;;;3.17;0.90;;;;;;;20.09;62.68;101581.28;5055988;28;20053;-57
2023/05/03 07:08:02;;;;;;;2.70;0.90;;;;;;;20.08;62.47;101590.34;5056173;28;20041;-57
2023/05/03 07:10:30;;;;;;;3.50;1.30;;;;;;;20.08;62.50;101584.94;5056072;28;20049;-56
2023/05/03 07:12:57;;;;;;;3.15;0.85;;;;;;;20.08;62.34;101587.66;5055727;28;20084;-57
2023/05/03 07:15:25;;;;;;;4.20;0.82;;;;;;;20.09;62.45;101585.81;5055898;28;20044;-57
2023/05/03 07:17:52;;;;;;;4.30;0.80;;;;;;;20.08;62.48;101584.94;5055964;28;20071;-57
2023/05/03 07:20:19;;;;;;;2.10;0.60;;;;;;;20.09;62.34;101577.75;5055431;28;20048;-57
2023/05/03 07:22:47;;;;;;;1.50;0.70;;;;;;;20.08;62.27;101576.03;5055732;28;20045;-57
2023/05/03 07:25:16;;;;;;;7.70;1.42;;;;;;;20.09;62.24;101575.06;5055723;28;20045;-57
2023/05/03 07:27:44;;;;;;;4.25;0.93;;;;;;;20.08;62.01;101574.19;5055909;28;20045;-56
2023/05/03 07:30:12;;;;;;;4.80;1.45;;;;;;;20.07;62.10;101572.50;5055397;28;20045;-56
2023/05/03 07:32:39;;;;;;;1.63;0.82;;;;;;;20.08;62.18;101578.72;5055490;28;20064;-56
2023/05/03 07:35:07;;;;;;;1.98;1.08;;;;;;;20.09;62.00;101575.06;5055080;28;20052;-56
2023/05/03 07:37:35;;;;;;;2.63;0.70;;;;;;;20.08;62.12;101579.56;5055108;28;20372;-55
2023/05/03 07:40:05;;;;;;;1.60;0.77;;;;;;;20.07;62.27;101575.19;5055127;28;20041;-56
2023/05/03 07:42:32;;;;;;;3.55;1.30;;;;;;;20.08;62.00;101581.41;5053777;28;20403;-56
2023/05/03 07:45:00;;;;;;;5.97;1.00;;;;;;;20.06;62.04;101581.53;5054533;28;20049;-56
2023/05/03 07:47:27;;;;;;;9.70;3.85;;;;;;;20.07;61.69;101588.63;5054636;28;20041;-57
2023/05/03 07:49:55;;;;;;;3.08;1.23;;;;;;;20.04;61.48;101583.47;5054992;28;20387;-56
2023/05/03 07:52:22;;;;;;;3.17;1.20;;;;;;;19.98;61.04;101584.81;5055026;28;20036;-56
2023/05/03 07:54:52;;;;;;;4.53;1.70;;;;;;;19.92;61.10;101581.72;5054425;28;20052;-56
2023/05/03 07:57:22;;;;;;;4.40;1.60;;;;;;;19.84;61.17;101584.16;5054874;28;20051;-56
2023/05/03 07:59:49;;;;;;;3.15;1.80;;;;;;;19.75;61.48;101583.03;5055165;28;20056;-56
2023/05/03 08:02:16;;;;;;;3.75;1.27;;;;;;;19.70;61.63;101580.69;5054650;28;20410;-56
2023/05/03 08:04:44;;;;;;;2.88;1.17;;;;;;;19.71;61.94;101584.22;5054701;28;20056;-56
2023/05/03 08:07:12;;;;;;;5.60;1.40;;;;;;;19.73;61.77;101585.84;5054385;28;20056;-57
2023/05/03 08:09:40;;;;;;;4.15;1.15;;;;;;;19.75;61.98;101586.56;5054252;28;20045;-56
2023/05/03 08:12:08;;;;;;;3.45;1.38;;;;;;;19.79;61.87;101589.03;5054654;28;20045;-56
2023/05/03 08:14:36;;;;;;;5.88;1.58;;;;;;;19.81;61.88;101590.63;5054186;28;20040;-56
2023/05/03 08:17:06;;;;;;;6.13;1.70;;;;;;;19.82;61.68;101595.03;5054272;28;20483;-56
2023/05/03 08:19:34;;;;;;;4.75;1.70;;;;;;;19.84;61.63;101597.59;5054390;28;20036;-56
2023/05/03 08:22:02;;;;;;;2.50;0.98;;;;;;;19.85;61.82;101596.59;5054440;28;20058;-56
2023/05/03 08:24:29;;;;;;;1.77;0.80;;;;;;;19.86;61.59;101587.59;5054635;28;20049;-56
2023/05/03 08:26:57;;;;;;;6.40;1.10;;;;;;;19.87;61.59;101590.16;5053565;28;20045;-55
2023/05/03 08:29:25;;;;;;;3.58;0.77;;;;;;;19.88;61.63;101594.53;5053839;28;20052;-56
2023/05/03 08:31:53;;;;;;;2.50;1.02;;;;;;;19.89;61.65;101592.72;5052234;28;20048;-56
2023/05/03 08:34:21;;;;;;;3.65;1.10;;;;;;;19.90;61.75;101599.81;5053898;28;20060;-56
2023/05/03 08:36:49;;;;;;;3.65;1.30;;;;;;;19.90;61.60;101603.38;5053616;28;20067;-56
2023/05/03 08:39:17;;;;;;;2.78;0.88;;;;;;;19.91;61.49;101599.69;5053669;28;20040;-56
2023/05/03 08:41:45;;;;;;;2.30;1.00;;;;;;;19.91;61.69;101597.00;5053506;28;20051;-56
2023/05/03 08:44:22;;;;;;;1.77;0.90;;;;;;;19.91;61.63;101602.38;5052214;28;20052;-56
2023/05/03 08:46:50;;;;;;;3.38;1.40;;;;;;;19.92;61.44;101604.09;5053559;28;20060;-56
2023/05/03 08:49:17;;;;;;;1.95;0.93;;;;;;;19.93;61.50;101604.94;5053762;28;20049;-56
2023/05/03 08:51:47;;;;;;;3.13;1.00;;;;;;;19.94;61.55;101604.00;5053351;28;20045;-56
2023/05/03 08:54:16;;;;;;;7.05;1.13;;;;;;;19.93;61.54;101603.13;5053401;28;20045;-56
2023/05/03 08:56:45;;;;;;;4.20;1.10;;;;;;;19.94;61.37;101602.16;5052709;28;20045;-56
2023/05/03 08:59:15;;;;;;;4.13;0.98;;;;;;;19.94;61.68;101604.00;5053192;28;20049;-56
2023/05/03 09:01:42;;;;;;;2.45;0.70;;;;;;;19.94;61.46;101604.84;5053321;28;20494;-56
2023/05/03 09:04:10;;;;;;;2.40;0.90;;;;;;;19.94;61.38;101602.16;5053249;28;20045;-56
2023/05/03 09:06:38;;;;;;;4.15;1.27;;;;;;;19.95;61.40;101603.00;5053170;28;20050;-56
2023/05/03 09:09:07;;;;;;;1.65;0.73;;;;;;;19.95;61.33;101606.53;5053151;28;20505;-56
2023/05/03 09:11:37;;;;;;;3.10;1.20;;;;;;;19.94;61.40;101599.47;5052984;28;20055;-56
2023/05/03 09:14:17;;;;;;;6.40;1.00;;;;;;;19.95;61.23;101605.69;5051337;28;20060;-55
2023/05/03 09:16:45;;;;;;;3.40;1.00;;;;;;;19.95;61.42;101601.16;5053028;28;20041;-56
2023/05/03 09:19:15;;;;;;;4.13;0.90;;;;;;;19.95;61.44;101603.84;5052891;28;20044;-56
2023/05/03 09:21:47;;;;;;;1.80;0.80;;;;;;;19.97;61.42;101611.78;5053210;28;20060;-56
2023/05/03 09:24:15;;;;;;;1.42;0.60;;;;;;;19.95;61.33;101603.84;5053196;28;20045;-56
2023/05/03 09:26:42;;;;;;;2.20;1.00;;;;;;;19.96;61.29;101602.88;5052939;28;20052;-56
2023/05/03 09:29:25;;;;;;;1.90;0.80;;;;;;;19.97;61.42;101603.72;5052909;28;20052;-56
2023/05/03 09:32:04;;;;;;;2.17;0.70;;;;;;;19.97;61.20;101604.63;5052950;28;20406;-56
2023/05/03 09:34:32;;;;;;;2.00;0.85;;;;;;;19.97;61.31;101606.41;5051675;28;20063;-56
2023/05/03 09:37:00;;;;;;;2.05;0.85;;;;;;;19.97;61.21;101604.63;5052809;28;20041;-56
2023/05/03 09:39:28;;;;;;;1.85;0.70;;;;;;;19.97;61.20;101604.63;5052663;28;20045;-56
2023/05/03 09:41:55;;;;;;;1.58;0.80;;;;;;;19.98;61.17;101605.47;5052984;28;20048;-56
2023/05/03 09:44:40;;;;;;;2.28;0.88;;;;;;;19.98;61.30;101605.47;5052719;28;20045;-56
2023/05/03 09:47:09;;;;;;;2.63;0.90;;;;;;;19.98;61.30;101602.78;5052788;28;20049;-56
2023/05/03 09:49:37;;;;;;;1.85;0.80;;;;;;;19.99;61.04;101601.78;5053029;28;20395;-56
2023/05/03 09:52:05;;;;;;;2.22;0.90;;;;;;;19.98;61.25;101600.09;5052802;28;20049;-56
2023/05/03 09:54:34;;;;;;;1.40;0.70;;;;;;;19.98;61.20;101605.47;5052630;28;20041;-56
2023/05/03 09:57:03;;;;;;;1.92;0.73;;;;;;;19.98;61.07;101602.78;5052897;28;20049;-56
2023/05/03 09:59:32;;;;;;;1.55;0.77;;;;;;;19.98;61.08;101602.78;5052780;28;20037;-56
2023/05/03 10:02:02;;;;;;;2.08;1.05;;;;;;;19.99;61.18;101596.41;5052530;28;20056;-56
2023/05/03 10:04:52;;;;;;;2.00;0.70;;;;;;;19.98;61.02;101590.19;5052505;28;20045;-56
2023/05/03 10:07:23;;;;;;;1.92;0.70;;;;;;;19.98;61.14;101594.72;5052830;28;20107;-56
2023/05/03 10:09:51;;;;;;;2.60;0.90;;;;;;;19.98;61.03;101594.72;5054799;28;20044;-56
2023/05/03 10:12:20;;;;;;;4.20;0.93;;;;;;;19.99;61.01;101593.72;5056432;28;20479;-56
2023/05/03 10:14:51;;;;;;;2.45;1.02;;;;;;;19.98;61.13;101595.56;5056579;28;20052;-56
2023/05/03 10:17:30;;;;;;;3.17;0.90;;;;;;;19.99;61.13;101591.03;5056073;28;20045;-56
2023/05/03 10:20:38;;;;;;;1.65;0.60;;;;;;;19.98;60.97;101589.34;5056821;28;20041;-56
2023/05/03 10:23:10;;;;;;;2.95;0.95;;;;;;;19.99;61.17;101591.91;5056896;28;20482;-56
2023/05/03 10:25:39;;;;;;;2.25;0.70;;;;;;;19.98;61.18;101590.19;5056036;28;20379;-57
2023/05/03 10:28:08;;;;;;;1.75;0.70;;;;;;;20.00;60.95;101585.53;5055708;28;20044;-57
2023/05/03 10:30:39;;;;;;;2.67;0.88;;;;;;;20.00;60.93;101588.22;5066560;28;20064;-57
2023/05/03 10:33:13;;;;;;;5.07;0.90;;;;;;;19.99;60.95;101586.53;5076173;28;20051;-56
2023/05/03 10:35:48;;;;;;;1.42;0.73;;;;;;;20.00;60.91;101590.06;5063774;28;20103;-57
2023/05/03 10:38:16;;;;;;;1.70;0.80;;;;;;;20.00;61.06;101595.44;5056142;28;20048;-57
2023/05/03 10:40:44;;;;;;;1.40;0.70;;;;;;;20.00;61.00;101584.69;5056190;28;20041;-56
2023/05/03 10:46:00;;;;;;;1.63;0.80;;;;;;;19.99;61.05;101574.91;5056273;28;20569;-57
2023/05/03 10:48:29;;;;;;;2.55;1.40;;;;;;;19.99;61.11;101577.59;5056172;28;20041;-56
2023/05/03 10:50:57;;;;;;;2.08;1.27;;;;;;;19.98;61.08;101578.59;5055218;28;20044;-56
2023/05/03 10:53:34;;;;;;;2.58;1.40;;;;;;;19.98;61.06;101573.22;5055760;28;20049;-56
2023/05/03 10:56:12;;;;;;;2.65;1.15;;;;;;;19.96;61.17;101567.94;5056269;28;20390;-57
2023/05/03 10:58:44;;;;;;;3.38;1.40;;;;;;;19.96;61.21;101569.78;5054439;28;20064;-57
2023/05/03 11:01:14;;;;;;;1.93;0.97;;;;;;;19.96;61.24;101559.03;5055543;28;20490;-57
2023/05/03 11:03:53;;;;;;;1.83;0.80;;;;;;;19.97;61.10;101568.78;5053957;28;20475;-57
2023/05/03 11:06:32;;;;;;;1.75;0.80;;;;;;;19.98;61.14;101562.47;5055723;28;20044;-57
2023/05/03 11:09:00;;;;;;;1.65;0.70;;;;;;;19.99;61.02;101566.84;5055216;28;20045;-57
2023/05/03 11:11:27;;;;;;;1.65;0.80;;;;;;;19.99;61.06;101564.16;5055500;28;20068;-56
2023/05/03 11:13:54;;;;;;;1.88;0.68;;;;;;;19.99;60.89;101554.28;5054318;28;20417;-56
2023/05/03 11:16:22;;;;;;;0.73;0.40;;;;;;;20.00;61.03;101560.50;5055532;28;20052;-56
2023/05/03 11:18:50;;;;;;;2.95;0.70;;;;;;;20.00;60.97;101553.28;5055117;28;20049;-56
2023/05/03 11:21:18;;;;;;;1.90;1.00;;;;;;;20.01;61.00;101551.44;5054662;28;20045;-57
2023/05/03 11:23:45;;;;;;;3.10;0.90;;;;;;;20.02;61.13;101553.19;5054921;28;20048;-57
2023/05/03 11:26:13;;;;;;;1.63;0.70;;;;;;;20.03;61.08;101559.41;5055271;28;20070;-57
2023/05/03 11:28:42;;;;;;;2.22;0.80;;;;;;;20.03;60.92;101557.59;5055068;28;20037;-57
2023/05/03 11:31:12;;;;;;;1.60;0.60;;;;;;;20.03;60.93;101554.03;5067340;28;20475;-56
2023/05/03 11:33:40;;;;;;;1.75;0.80;;;;;;;20.05;61.01;101552.94;5074662;28;20483;-57
2023/05/03 11:36:08;;;;;;;2.47;1.00;;;;;;;20.06;61.28;101551.13;5074222;28;20048;-57